sensor_id;sensor_type;location;lat;lon;timestamp;P1;durP1;ratioP1;P2;durP2;ratioP2
15929;SDS011;8064;51.142;4.780;2022-07-19T00:02:04;10.80;;;5.07;;
15929;SDS011;8064;51.142;4.780;2022-07-19T00:04:31;8.13;;;4.95;;
15929;SDS011;8064;51.142;4.780;2022-07-19T00:06:57;10.10;;;4.88;;
15929;SDS011;8064;51.142;4.780;2022-07-19T00:09:23;8.10;;;5.45;;
15929;SDS011;8064;51.142;4.780;2022-07-19T00:11:49;14.07;;;5.43;;
15929;SDS011;8064;51.142;4.780;2022-07-19T00:14:15;9.05;;;4.95;;
15929;SDS011;8064;51.142;4.780;2022-07-19T00:16:41;9.18;;;5.05;;
15929;SDS011;8064;51.142;4.780;2022-07-19T00:19:07;7.05;;;4.22;;
15929;SDS011;8064;51.142;4.780;2022-07-19T00:21:33;7.95;;;4.38;;
15929;SDS011;8064;51.142;4.780;2022-07-19T00:23:59;7.60;;;4.32;;
15929;SDS011;8064;51.142;4.780;2022-07-19T00:26:26;9.98;;;4.63;;
15929;SDS011;8064;51.142;4.780;2022-07-19T00:28:53;6.10;;;4.25;;
15929;SDS011;8064;51.142;4.780;2022-07-19T00:31:20;12.07;;;4.00;;
15929;SDS011;8064;51.142;4.780;2022-07-19T00:33:46;7.28;;;3.80;;
15929;SDS011;8064;51.142;4.780;2022-07-19T00:36:12;7.38;;;3.47;;
15929;SDS011;8064;51.142;4.780;2022-07-19T00:38:38;8.03;;;3.60;;
15929;SDS011;8064;51.142;4.780;2022-07-19T00:41:04;9.95;;;4.38;;
15929;SDS011;8064;51.142;4.780;2022-07-19T00:43:30;10.63;;;4.15;;
15929;SDS011;8064;51.142;4.780;2022-07-19T00:45:56;6.78;;;3.85;;
15929;SDS011;8064;51.142;4.780;2022-07-19T00:48:22;11.52;;;3.65;;
15929;SDS011;8064;51.142;4.780;2022-07-19T00:50:48;9.23;;;3.88;;
15929;SDS011;8064;51.142;4.780;2022-07-19T00:53:14;9.83;;;4.20;;
15929;SDS011;8064;51.142;4.780;2022-07-19T00:55:40;7.18;;;3.60;;
15929;SDS011;8064;51.142;4.780;2022-07-19T00:58:08;6.70;;;3.10;;
15929;SDS011;8064;51.142;4.780;2022-07-19T01:00:36;4.23;;;3.10;;
15929;SDS011;8064;51.142;4.780;2022-07-19T01:03:04;7.32;;;3.05;;
15929;SDS011;8064;51.142;4.780;2022-07-19T01:05:33;5.35;;;3.15;;
15929;SDS011;8064;51.142;4.780;2022-07-19T01:07:59;6.03;;;3.70;;
15929;SDS011;8064;51.142;4.780;2022-07-19T01:10:25;5.77;;;3.10;;
15929;SDS011;8064;51.142;4.780;2022-07-19T01:12:52;3.95;;;2.83;;
15929;SDS011;8064;51.142;4.780;2022-07-19T01:15:19;6.53;;;3.20;;
15929;SDS011;8064;51.142;4.780;2022-07-19T01:17:47;8.10;;;3.10;;
15929;SDS011;8064;51.142;4.780;2022-07-19T01:20:13;5.47;;;3.40;;
15929;SDS011;8064;51.142;4.780;2022-07-19T01:22:42;5.20;;;3.33;;
15929;SDS011;8064;51.142;4.780;2022-07-19T01:25:09;4.23;;;3.17;;
15929;SDS011;8064;51.142;4.780;2022-07-19T01:27:46;4.80;;;3.20;;
15929;SDS011;8064;51.142;4.780;2022-07-19T01:30:15;3.27;;;2.60;;
15929;SDS011;8064;51.142;4.780;2022-07-19T01:32:42;5.00;;;2.72;;
15929;SDS011;8064;51.142;4.780;2022-07-19T01:35:08;5.07;;;2.67;;
15929;SDS011;8064;51.142;4.780;2022-07-19T01:37:34;3.13;;;2.20;;
15929;SDS011;8064;51.142;4.780;2022-07-19T01:40:01;6.10;;;2.97;;
15929;SDS011;8064;51.142;4.780;2022-07-19T01:42:28;5.80;;;2.67;;
15929;SDS011;8064;51.142;4.780;2022-07-19T01:44:54;4.60;;;2.60;;
15929;SDS011;8064;51.142;4.780;2022-07-19T01:47:20;4.57;;;2.70;;
15929;SDS011;8064;51.142;4.780;2022-07-19T01:49:45;4.73;;;2.63;;
15929;SDS011;8064;51.142;4.780;2022-07-19T01:52:11;5.57;;;2.73;;
15929;SDS011;8064;51.142;4.780;2022-07-19T01:54:37;3.40;;;2.50;;
15929;SDS011;8064;51.142;4.780;2022-07-19T01:57:03;5.00;;;2.50;;
15929;SDS011;8064;51.142;4.780;2022-07-19T01:59:28;5.70;;;2.57;;
15929;SDS011;8064;51.142;4.780;2022-07-19T02:01:54;3.07;;;2.30;;
15929;SDS011;8064;51.142;4.780;2022-07-19T02:04:20;3.83;;;2.67;;
15929;SDS011;8064;51.142;4.780;2022-07-19T02:06:46;3.53;;;2.40;;
15929;SDS011;8064;51.142;4.780;2022-07-19T02:09:11;7.47;;;2.67;;
15929;SDS011;8064;51.142;4.780;2022-07-19T02:11:37;7.67;;;2.60;;
15929;SDS011;8064;51.142;4.780;2022-07-19T02:14:03;5.47;;;2.83;;
15929;SDS011;8064;51.142;4.780;2022-07-19T02:16:30;5.20;;;3.40;;
15929;SDS011;8064;51.142;4.780;2022-07-19T02:18:56;6.63;;;3.30;;
15929;SDS011;8064;51.142;4.780;2022-07-19T02:21:22;5.50;;;2.80;;
15929;SDS011;8064;51.142;4.780;2022-07-19T02:23:48;4.97;;;2.70;;
15929;SDS011;8064;51.142;4.780;2022-07-19T02:26:13;5.23;;;2.50;;
15929;SDS011;8064;51.142;4.780;2022-07-19T02:28:39;5.40;;;2.87;;
15929;SDS011;8064;51.142;4.780;2022-07-19T02:31:05;7.57;;;2.30;;
15929;SDS011;8064;51.142;4.780;2022-07-19T02:33:30;4.17;;;2.47;;
15929;SDS011;8064;51.142;4.780;2022-07-19T02:35:56;3.43;;;2.40;;
15929;SDS011;8064;51.142;4.780;2022-07-19T02:38:22;3.53;;;2.63;;
15929;SDS011;8064;51.142;4.780;2022-07-19T02:40:48;7.63;;;2.67;;
15929;SDS011;8064;51.142;4.780;2022-07-19T02:43:14;4.43;;;2.43;;
15929;SDS011;8064;51.142;4.780;2022-07-19T02:45:40;6.20;;;2.47;;
15929;SDS011;8064;51.142;4.780;2022-07-19T02:48:06;3.20;;;2.57;;
15929;SDS011;8064;51.142;4.780;2022-07-19T02:50:34;3.23;;;2.40;;
15929;SDS011;8064;51.142;4.780;2022-07-19T02:53:03;8.60;;;3.43;;
15929;SDS011;8064;51.142;4.780;2022-07-19T02:55:29;5.70;;;2.80;;
15929;SDS011;8064;51.142;4.780;2022-07-19T02:57:55;3.93;;;2.50;;
15929;SDS011;8064;51.142;4.780;2022-07-19T03:00:21;3.13;;;2.57;;
15929;SDS011;8064;51.142;4.780;2022-07-19T03:02:47;7.73;;;3.10;;
15929;SDS011;8064;51.142;4.780;2022-07-19T03:05:13;6.33;;;2.97;;
15929;SDS011;8064;51.142;4.780;2022-07-19T03:07:39;4.40;;;2.90;;
15929;SDS011;8064;51.142;4.780;2022-07-19T03:10:05;4.17;;;3.00;;
15929;SDS011;8064;51.142;4.780;2022-07-19T03:12:31;7.00;;;3.10;;
15929;SDS011;8064;51.142;4.780;2022-07-19T03:14:57;3.33;;;2.30;;
15929;SDS011;8064;51.142;4.780;2022-07-19T03:17:23;5.23;;;3.40;;
15929;SDS011;8064;51.142;4.780;2022-07-19T03:19:49;5.37;;;3.30;;
15929;SDS011;8064;51.142;4.780;2022-07-19T03:22:14;7.67;;;3.93;;
15929;SDS011;8064;51.142;4.780;2022-07-19T03:24:40;5.03;;;3.80;;
15929;SDS011;8064;51.142;4.780;2022-07-19T03:27:06;7.43;;;3.87;;
15929;SDS011;8064;51.142;4.780;2022-07-19T03:29:32;6.97;;;3.97;;
15929;SDS011;8064;51.142;4.780;2022-07-19T03:31:58;6.03;;;3.90;;
15929;SDS011;8064;51.142;4.780;2022-07-19T03:34:24;7.17;;;4.13;;
15929;SDS011;8064;51.142;4.780;2022-07-19T03:36:50;7.23;;;3.20;;
15929;SDS011;8064;51.142;4.780;2022-07-19T03:39:16;4.87;;;2.67;;
15929;SDS011;8064;51.142;4.780;2022-07-19T03:41:42;4.50;;;2.80;;
15929;SDS011;8064;51.142;4.780;2022-07-19T03:44:07;5.47;;;3.33;;
15929;SDS011;8064;51.142;4.780;2022-07-19T03:46:33;6.03;;;2.93;;
15929;SDS011;8064;51.142;4.780;2022-07-19T03:48:59;7.57;;;3.93;;
15929;SDS011;8064;51.142;4.780;2022-07-19T03:51:25;6.53;;;3.67;;
15929;SDS011;8064;51.142;4.780;2022-07-19T03:53:51;8.37;;;3.83;;
15929;SDS011;8064;51.142;4.780;2022-07-19T03:56:17;6.30;;;3.63;;
15929;SDS011;8064;51.142;4.780;2022-07-19T03:58:43;6.63;;;4.10;;
15929;SDS011;8064;51.142;4.780;2022-07-19T04:01:09;5.53;;;3.40;;
15929;SDS011;8064;51.142;4.780;2022-07-19T04:03:36;5.70;;;2.83;;
15929;SDS011;8064;51.142;4.780;2022-07-19T04:06:04;4.10;;;3.00;;
15929;SDS011;8064;51.142;4.780;2022-07-19T04:08:31;5.20;;;3.23;;
15929;SDS011;8064;51.142;4.780;2022-07-19T04:10:57;5.73;;;3.10;;
15929;SDS011;8064;51.142;4.780;2022-07-19T04:13:23;4.77;;;3.00;;
15929;SDS011;8064;51.142;4.780;2022-07-19T04:15:49;4.33;;;3.80;;
15929;SDS011;8064;51.142;4.780;2022-07-19T04:18:14;9.50;;;3.83;;
15929;SDS011;8064;51.142;4.780;2022-07-19T04:20:40;10.07;;;5.23;;
15929;SDS011;8064;51.142;4.780;2022-07-19T04:23:06;8.00;;;4.53;;
15929;SDS011;8064;51.142;4.780;2022-07-19T04:25:32;12.17;;;6.23;;
15929;SDS011;8064;51.142;4.780;2022-07-19T04:27:58;7.20;;;4.40;;
15929;SDS011;8064;51.142;4.780;2022-07-19T04:30:24;6.90;;;4.67;;
15929;SDS011;8064;51.142;4.780;2022-07-19T04:32:49;6.23;;;4.60;;
15929;SDS011;8064;51.142;4.780;2022-07-19T04:35:15;8.23;;;4.90;;
15929;SDS011;8064;51.142;4.780;2022-07-19T04:37:41;12.40;;;5.07;;
15929;SDS011;8064;51.142;4.780;2022-07-19T04:40:08;8.77;;;5.20;;
15929;SDS011;8064;51.142;4.780;2022-07-19T04:42:34;12.07;;;5.17;;
15929;SDS011;8064;51.142;4.780;2022-07-19T04:45:00;13.60;;;6.30;;
15929;SDS011;8064;51.142;4.780;2022-07-19T04:47:26;11.20;;;5.97;;
15929;SDS011;8064;51.142;4.780;2022-07-19T04:49:52;9.57;;;6.10;;
15929;SDS011;8064;51.142;4.780;2022-07-19T04:52:18;9.90;;;6.10;;
15929;SDS011;8064;51.142;4.780;2022-07-19T04:54:44;9.73;;;5.83;;
15929;SDS011;8064;51.142;4.780;2022-07-19T04:57:10;9.17;;;5.60;;
15929;SDS011;8064;51.142;4.780;2022-07-19T04:59:35;10.93;;;5.60;;
15929;SDS011;8064;51.142;4.780;2022-07-19T05:02:01;9.57;;;6.13;;
15929;SDS011;8064;51.142;4.780;2022-07-19T05:04:27;10.33;;;6.87;;
15929;SDS011;8064;51.142;4.780;2022-07-19T05:06:53;12.27;;;6.73;;
15929;SDS011;8064;51.142;4.780;2022-07-19T05:09:22;14.50;;;7.03;;
15929;SDS011;8064;51.142;4.780;2022-07-19T05:11:50;13.90;;;6.60;;
15929;SDS011;8064;51.142;4.780;2022-07-19T05:14:16;8.87;;;6.07;;
15929;SDS011;8064;51.142;4.780;2022-07-19T05:16:42;13.07;;;5.17;;
15929;SDS011;8064;51.142;4.780;2022-07-19T05:19:07;8.80;;;5.30;;
15929;SDS011;8064;51.142;4.780;2022-07-19T05:21:33;7.63;;;5.37;;
15929;SDS011;8064;51.142;4.780;2022-07-19T05:23:59;7.70;;;5.40;;
15929;SDS011;8064;51.142;4.780;2022-07-19T05:26:24;7.63;;;5.13;;
15929;SDS011;8064;51.142;4.780;2022-07-19T05:28:50;6.40;;;4.43;;
15929;SDS011;8064;51.142;4.780;2022-07-19T05:31:16;7.30;;;4.83;;
15929;SDS011;8064;51.142;4.780;2022-07-19T05:33:42;8.33;;;4.87;;
15929;SDS011;8064;51.142;4.780;2022-07-19T05:36:08;12.88;;;4.97;;
15929;SDS011;8064;51.142;4.780;2022-07-19T05:38:36;11.82;;;4.75;;
15929;SDS011;8064;51.142;4.780;2022-07-19T05:41:03;12.30;;;5.43;;
15929;SDS011;8064;51.142;4.780;2022-07-19T05:43:30;7.45;;;4.50;;
15929;SDS011;8064;51.142;4.780;2022-07-19T05:45:56;6.03;;;4.38;;
15929;SDS011;8064;51.142;4.780;2022-07-19T05:48:21;10.68;;;4.35;;
15929;SDS011;8064;51.142;4.780;2022-07-19T05:50:47;6.32;;;3.67;;
15929;SDS011;8064;51.142;4.780;2022-07-19T05:53:13;8.75;;;3.90;;
15929;SDS011;8064;51.142;4.780;2022-07-19T05:55:39;8.35;;;3.58;;
15929;SDS011;8064;51.142;4.780;2022-07-19T05:58:04;5.93;;;3.78;;
15929;SDS011;8064;51.142;4.780;2022-07-19T06:00:30;5.13;;;3.55;;
15929;SDS011;8064;51.142;4.780;2022-07-19T06:02:56;7.22;;;3.50;;
15929;SDS011;8064;51.142;4.780;2022-07-19T06:05:21;7.05;;;3.78;;
15929;SDS011;8064;51.142;4.780;2022-07-19T06:07:47;9.98;;;4.40;;
15929;SDS011;8064;51.142;4.780;2022-07-19T06:10:13;9.10;;;3.60;;
15929;SDS011;8064;51.142;4.780;2022-07-19T06:12:39;6.07;;;3.58;;
15929;SDS011;8064;51.142;4.780;2022-07-19T06:15:05;6.55;;;3.70;;
15929;SDS011;8064;51.142;4.780;2022-07-19T06:17:31;8.35;;;3.85;;
15929;SDS011;8064;51.142;4.780;2022-07-19T06:19:56;5.43;;;3.55;;
15929;SDS011;8064;51.142;4.780;2022-07-19T06:22:22;6.57;;;3.85;;
15929;SDS011;8064;51.142;4.780;2022-07-19T06:24:48;5.72;;;2.85;;
15929;SDS011;8064;51.142;4.780;2022-07-19T06:27:14;10.05;;;3.90;;
15929;SDS011;8064;51.142;4.780;2022-07-19T06:29:39;8.18;;;3.40;;
15929;SDS011;8064;51.142;4.780;2022-07-19T06:32:05;8.35;;;4.05;;
15929;SDS011;8064;51.142;4.780;2022-07-19T06:34:31;4.90;;;3.15;;
15929;SDS011;8064;51.142;4.780;2022-07-19T06:36:57;9.27;;;3.30;;
15929;SDS011;8064;51.142;4.780;2022-07-19T06:39:22;6.35;;;2.90;;
15929;SDS011;8064;51.142;4.780;2022-07-19T06:41:48;3.92;;;2.83;;
15929;SDS011;8064;51.142;4.780;2022-07-19T06:44:14;3.38;;;2.95;;
15929;SDS011;8064;51.142;4.780;2022-07-19T06:46:39;4.72;;;2.92;;
15929;SDS011;8064;51.142;4.780;2022-07-19T06:49:05;3.78;;;2.70;;
15929;SDS011;8064;51.142;4.780;2022-07-19T06:51:31;5.15;;;2.83;;
15929;SDS011;8064;51.142;4.780;2022-07-19T06:53:57;7.65;;;2.72;;
15929;SDS011;8064;51.142;4.780;2022-07-19T06:56:22;3.42;;;2.60;;
15929;SDS011;8064;51.142;4.780;2022-07-19T06:58:48;4.35;;;2.80;;
15929;SDS011;8064;51.142;4.780;2022-07-19T07:01:14;5.80;;;2.47;;
15929;SDS011;8064;51.142;4.780;2022-07-19T07:03:40;3.47;;;2.50;;
15929;SDS011;8064;51.142;4.780;2022-07-19T07:06:05;5.60;;;2.80;;
15929;SDS011;8064;51.142;4.780;2022-07-19T07:08:31;4.40;;;2.70;;
15929;SDS011;8064;51.142;4.780;2022-07-19T07:10:57;4.35;;;2.40;;
15929;SDS011;8064;51.142;4.780;2022-07-19T07:13:23;6.32;;;2.40;;
15929;SDS011;8064;51.142;4.780;2022-07-19T07:15:48;7.75;;;2.63;;
15929;SDS011;8064;51.142;4.780;2022-07-19T07:18:14;5.53;;;2.50;;
15929;SDS011;8064;51.142;4.780;2022-07-19T07:20:40;7.05;;;2.60;;
15929;SDS011;8064;51.142;4.780;2022-07-19T07:23:06;4.20;;;2.28;;
15929;SDS011;8064;51.142;4.780;2022-07-19T07:25:31;5.32;;;2.80;;
15929;SDS011;8064;51.142;4.780;2022-07-19T07:27:57;3.88;;;2.20;;
15929;SDS011;8064;51.142;4.780;2022-07-19T07:30:23;4.00;;;2.40;;
15929;SDS011;8064;51.142;4.780;2022-07-19T07:32:49;6.90;;;2.67;;
15929;SDS011;8064;51.142;4.780;2022-07-19T07:35:15;8.15;;;2.95;;
15929;SDS011;8064;51.142;4.780;2022-07-19T07:37:40;5.35;;;2.58;;
15929;SDS011;8064;51.142;4.780;2022-07-19T07:40:06;5.15;;;2.13;;
15929;SDS011;8064;51.142;4.780;2022-07-19T07:42:32;6.05;;;2.60;;
15929;SDS011;8064;51.142;4.780;2022-07-19T07:44:59;8.20;;;2.50;;
15929;SDS011;8064;51.142;4.780;2022-07-19T07:47:25;3.90;;;2.42;;
15929;SDS011;8064;51.142;4.780;2022-07-19T07:49:51;4.30;;;2.05;;
15929;SDS011;8064;51.142;4.780;2022-07-19T07:52:17;4.57;;;1.92;;
15929;SDS011;8064;51.142;4.780;2022-07-19T07:54:43;3.60;;;2.03;;
15929;SDS011;8064;51.142;4.780;2022-07-19T07:57:09;2.60;;;1.95;;
15929;SDS011;8064;51.142;4.780;2022-07-19T07:59:35;2.22;;;1.85;;
15929;SDS011;8064;51.142;4.780;2022-07-19T08:02:01;5.28;;;2.08;;
15929;SDS011;8064;51.142;4.780;2022-07-19T08:04:27;5.18;;;2.03;;
15929;SDS011;8064;51.142;4.780;2022-07-19T08:06:53;6.10;;;2.15;;
15929;SDS011;8064;51.142;4.780;2022-07-19T08:09:19;7.00;;;2.40;;
15929;SDS011;8064;51.142;4.780;2022-07-19T08:11:45;6.90;;;1.90;;
15929;SDS011;8064;51.142;4.780;2022-07-19T08:14:11;4.90;;;1.83;;
15929;SDS011;8064;51.142;4.780;2022-07-19T08:16:37;4.50;;;2.15;;
15929;SDS011;8064;51.142;4.780;2022-07-19T08:19:03;6.18;;;1.98;;
15929;SDS011;8064;51.142;4.780;2022-07-19T08:21:29;5.78;;;1.95;;
15929;SDS011;8064;51.142;4.780;2022-07-19T08:23:55;2.88;;;2.10;;
15929;SDS011;8064;51.142;4.780;2022-07-19T08:26:21;3.22;;;1.73;;
15929;SDS011;8064;51.142;4.780;2022-07-19T08:28:47;3.38;;;1.95;;
15929;SDS011;8064;51.142;4.780;2022-07-19T08:31:14;2.90;;;2.10;;
15929;SDS011;8064;51.142;4.780;2022-07-19T08:33:40;3.10;;;1.85;;
15929;SDS011;8064;51.142;4.780;2022-07-19T08:36:07;5.25;;;2.00;;
15929;SDS011;8064;51.142;4.780;2022-07-19T08:38:34;5.78;;;1.88;;
15929;SDS011;8064;51.142;4.780;2022-07-19T08:41:02;4.55;;;2.00;;
15929;SDS011;8064;51.142;4.780;2022-07-19T08:43:28;3.70;;;2.10;;
15929;SDS011;8064;51.142;4.780;2022-07-19T08:45:54;6.32;;;2.38;;
15929;SDS011;8064;51.142;4.780;2022-07-19T08:48:24;3.72;;;1.80;;
15929;SDS011;8064;51.142;4.780;2022-07-19T08:50:51;6.60;;;2.53;;
15929;SDS011;8064;51.142;4.780;2022-07-19T08:53:18;3.53;;;2.00;;
15929;SDS011;8064;51.142;4.780;2022-07-19T08:55:45;4.03;;;1.90;;
15929;SDS011;8064;51.142;4.780;2022-07-19T08:58:11;5.93;;;1.98;;
15929;SDS011;8064;51.142;4.780;2022-07-19T09:00:37;4.80;;;2.17;;
15929;SDS011;8064;51.142;4.780;2022-07-19T09:03:04;4.85;;;2.00;;
15929;SDS011;8064;51.142;4.780;2022-07-19T09:05:32;4.03;;;2.10;;
15929;SDS011;8064;51.142;4.780;2022-07-19T09:08:02;5.22;;;2.25;;
15929;SDS011;8064;51.142;4.780;2022-07-19T09:10:27;4.25;;;2.10;;
15929;SDS011;8064;51.142;4.780;2022-07-19T09:21:05;6.75;;;2.15;;
15929;SDS011;8064;51.142;4.780;2022-07-19T09:23:32;4.63;;;2.42;;
15929;SDS011;8064;51.142;4.780;2022-07-19T09:26:01;2.88;;;2.00;;
15929;SDS011;8064;51.142;4.780;2022-07-19T09:28:29;3.40;;;1.60;;
15929;SDS011;8064;51.142;4.780;2022-07-19T09:30:59;6.75;;;2.13;;
15929;SDS011;8064;51.142;4.780;2022-07-19T09:33:28;3.85;;;2.28;;
15929;SDS011;8064;51.142;4.780;2022-07-19T09:38:39;5.03;;;2.72;;
15929;SDS011;8064;51.142;4.780;2022-07-19T09:41:11;3.33;;;2.17;;
15929;SDS011;8064;51.142;4.780;2022-07-19T09:43:50;2.95;;;2.13;;
15929;SDS011;8064;51.142;4.780;2022-07-19T09:46:29;5.65;;;2.83;;
15929;SDS011;8064;51.142;4.780;2022-07-19T09:49:16;7.20;;;2.20;;
15929;SDS011;8064;51.142;4.780;2022-07-19T09:51:45;3.70;;;2.28;;
15929;SDS011;8064;51.142;4.780;2022-07-19T09:54:13;6.93;;;2.38;;
15929;SDS011;8064;51.142;4.780;2022-07-19T09:56:42;5.78;;;2.67;;
15929;SDS011;8064;51.142;4.780;2022-07-19T09:59:08;5.20;;;2.63;;
15929;SDS011;8064;51.142;4.780;2022-07-19T10:01:34;3.92;;;2.17;;
15929;SDS011;8064;51.142;4.780;2022-07-19T10:04:03;4.15;;;2.05;;
15929;SDS011;8064;51.142;4.780;2022-07-19T10:06:33;4.47;;;2.58;;
15929;SDS011;8064;51.142;4.780;2022-07-19T10:09:00;6.85;;;2.55;;
15929;SDS011;8064;51.142;4.780;2022-07-19T10:11:29;5.13;;;2.50;;
15929;SDS011;8064;51.142;4.780;2022-07-19T10:13:55;7.07;;;2.33;;
15929;SDS011;8064;51.142;4.780;2022-07-19T10:16:24;4.15;;;2.28;;
15929;SDS011;8064;51.142;4.780;2022-07-19T10:19:07;4.80;;;2.25;;
15929;SDS011;8064;51.142;4.780;2022-07-19T10:21:33;3.35;;;2.10;;
15929;SDS011;8064;51.142;4.780;2022-07-19T10:24:01;2.45;;;2.05;;
15929;SDS011;8064;51.142;4.780;2022-07-19T10:26:37;5.28;;;2.17;;
15929;SDS011;8064;51.142;4.780;2022-07-19T10:34:35;4.03;;;2.10;;
15929;SDS011;8064;51.142;4.780;2022-07-19T10:37:01;8.57;;;2.40;;
15929;SDS011;8064;51.142;4.780;2022-07-19T10:39:28;4.80;;;2.03;;
15929;SDS011;8064;51.142;4.780;2022-07-19T10:50:12;5.82;;;2.20;;
15929;SDS011;8064;51.142;4.780;2022-07-19T10:52:43;3.25;;;2.08;;
15929;SDS011;8064;51.142;4.780;2022-07-19T11:03:27;6.45;;;2.33;;
15929;SDS011;8064;51.142;4.780;2022-07-19T11:05:56;4.65;;;2.25;;
15929;SDS011;8064;51.142;4.780;2022-07-19T11:11:08;6.03;;;1.88;;
15929;SDS011;8064;51.142;4.780;2022-07-19T11:13:37;4.38;;;2.03;;
15929;SDS011;8064;51.142;4.780;2022-07-19T11:16:04;3.13;;;1.92;;
15929;SDS011;8064;51.142;4.780;2022-07-19T11:18:31;5.05;;;2.00;;
15929;SDS011;8064;51.142;4.780;2022-07-19T11:21:07;3.45;;;1.90;;
15929;SDS011;8064;51.142;4.780;2022-07-19T11:23:35;3.08;;;1.98;;
15929;SDS011;8064;51.142;4.780;2022-07-19T11:26:05;3.65;;;2.00;;
15929;SDS011;8064;51.142;4.780;2022-07-19T11:28:46;6.72;;;2.30;;
15929;SDS011;8064;51.142;4.780;2022-07-19T11:31:14;4.13;;;2.08;;
15929;SDS011;8064;51.142;4.780;2022-07-19T11:33:43;6.85;;;2.05;;
15929;SDS011;8064;51.142;4.780;2022-07-19T11:36:10;3.38;;;2.03;;
15929;SDS011;8064;51.142;4.780;2022-07-19T11:38:39;3.15;;;1.80;;
15929;SDS011;8064;51.142;4.780;2022-07-19T11:41:07;3.28;;;1.90;;
15929;SDS011;8064;51.142;4.780;2022-07-19T11:43:36;2.40;;;2.03;;
15929;SDS011;8064;51.142;4.780;2022-07-19T11:46:02;4.85;;;2.10;;
15929;SDS011;8064;51.142;4.780;2022-07-19T11:48:29;3.45;;;2.00;;
15929;SDS011;8064;51.142;4.780;2022-07-19T11:50:57;5.63;;;2.03;;
15929;SDS011;8064;51.142;4.780;2022-07-19T11:53:42;3.88;;;1.90;;
15929;SDS011;8064;51.142;4.780;2022-07-19T11:58:54;3.40;;;1.80;;
15929;SDS011;8064;51.142;4.780;2022-07-19T12:01:23;2.80;;;2.00;;
15929;SDS011;8064;51.142;4.780;2022-07-19T12:04:04;5.18;;;2.30;;
15929;SDS011;8064;51.142;4.780;2022-07-19T12:06:34;3.00;;;1.60;;
15929;SDS011;8064;51.142;4.780;2022-07-19T12:09:12;3.28;;;2.30;;
15929;SDS011;8064;51.142;4.780;2022-07-19T12:11:42;5.28;;;1.85;;
15929;SDS011;8064;51.142;4.780;2022-07-19T12:14:26;2.83;;;1.80;;
15929;SDS011;8064;51.142;4.780;2022-07-19T12:19:50;2.05;;;1.73;;
15929;SDS011;8064;51.142;4.780;2022-07-19T12:25:05;3.60;;;1.90;;
15929;SDS011;8064;51.142;4.780;2022-07-19T12:27:32;3.22;;;2.08;;
15929;SDS011;8064;51.142;4.780;2022-07-19T12:29:58;3.03;;;1.85;;
15929;SDS011;8064;51.142;4.780;2022-07-19T12:32:26;6.30;;;2.10;;
15929;SDS011;8064;51.142;4.780;2022-07-19T12:34:56;5.18;;;2.17;;
15929;SDS011;8064;51.142;4.780;2022-07-19T12:37:25;2.90;;;1.77;;
15929;SDS011;8064;51.142;4.780;2022-07-19T12:42:37;2.83;;;1.73;;
15929;SDS011;8064;51.142;4.780;2022-07-19T12:45:06;3.13;;;1.80;;
15929;SDS011;8064;51.142;4.780;2022-07-19T12:47:34;3.33;;;2.08;;
15929;SDS011;8064;51.142;4.780;2022-07-19T12:50:00;7.10;;;1.80;;
15929;SDS011;8064;51.142;4.780;2022-07-19T12:52:25;2.63;;;1.95;;
15929;SDS011;8064;51.142;4.780;2022-07-19T12:54:51;2.30;;;1.95;;
15929;SDS011;8064;51.142;4.780;2022-07-19T12:57:17;1.98;;;1.77;;
15929;SDS011;8064;51.142;4.780;2022-07-19T12:59:43;6.82;;;2.03;;
15929;SDS011;8064;51.142;4.780;2022-07-19T13:04:53;4.90;;;1.90;;
15929;SDS011;8064;51.142;4.780;2022-07-19T13:07:19;2.60;;;1.83;;
15929;SDS011;8064;51.142;4.780;2022-07-19T13:09:45;5.18;;;2.10;;
15929;SDS011;8064;51.142;4.780;2022-07-19T13:12:11;5.13;;;2.20;;
15929;SDS011;8064;51.142;4.780;2022-07-19T13:14:37;3.75;;;2.13;;
15929;SDS011;8064;51.142;4.780;2022-07-19T13:17:04;5.80;;;1.85;;
15929;SDS011;8064;51.142;4.780;2022-07-19T13:19:30;3.28;;;2.10;;
15929;SDS011;8064;51.142;4.780;2022-07-19T13:21:56;3.17;;;2.28;;
15929;SDS011;8064;51.142;4.780;2022-07-19T13:24:23;5.22;;;2.28;;
15929;SDS011;8064;51.142;4.780;2022-07-19T13:26:49;5.93;;;2.40;;
15929;SDS011;8064;51.142;4.780;2022-07-19T13:29:15;3.88;;;2.40;;
15929;SDS011;8064;51.142;4.780;2022-07-19T13:31:41;5.38;;;2.10;;
15929;SDS011;8064;51.142;4.780;2022-07-19T13:34:07;5.85;;;2.40;;
15929;SDS011;8064;51.142;4.780;2022-07-19T13:36:33;5.97;;;2.17;;
15929;SDS011;8064;51.142;4.780;2022-07-19T13:38:59;3.85;;;2.40;;
15929;SDS011;8064;51.142;4.780;2022-07-19T13:41:25;8.30;;;2.60;;
15929;SDS011;8064;51.142;4.780;2022-07-19T13:43:50;7.10;;;2.58;;
15929;SDS011;8064;51.142;4.780;2022-07-19T13:46:18;5.68;;;2.50;;
15929;SDS011;8064;51.142;4.780;2022-07-19T13:48:45;3.90;;;1.98;;
15929;SDS011;8064;51.142;4.780;2022-07-19T13:51:11;3.10;;;1.95;;
15929;SDS011;8064;51.142;4.780;2022-07-19T13:53:37;3.97;;;2.25;;
15929;SDS011;8064;51.142;4.780;2022-07-19T13:56:03;4.97;;;2.22;;
15929;SDS011;8064;51.142;4.780;2022-07-19T13:58:30;3.45;;;2.40;;
15929;SDS011;8064;51.142;4.780;2022-07-19T14:00:56;6.13;;;2.28;;
15929;SDS011;8064;51.142;4.780;2022-07-19T14:03:22;3.90;;;2.20;;
15929;SDS011;8064;51.142;4.780;2022-07-19T14:05:48;3.63;;;2.42;;
15929;SDS011;8064;51.142;4.780;2022-07-19T14:08:14;5.38;;;2.53;;
15929;SDS011;8064;51.142;4.780;2022-07-19T14:10:41;4.78;;;2.30;;
15929;SDS011;8064;51.142;4.780;2022-07-19T14:13:07;8.07;;;2.28;;
15929;SDS011;8064;51.142;4.780;2022-07-19T14:15:33;2.97;;;2.42;;
15929;SDS011;8064;51.142;4.780;2022-07-19T14:17:59;2.40;;;2.05;;
15929;SDS011;8064;51.142;4.780;2022-07-19T14:20:26;3.45;;;2.20;;
15929;SDS011;8064;51.142;4.780;2022-07-19T14:22:52;4.13;;;2.13;;
15929;SDS011;8064;51.142;4.780;2022-07-19T14:25:18;6.32;;;2.50;;
15929;SDS011;8064;51.142;4.780;2022-07-19T14:27:45;5.40;;;2.15;;
15929;SDS011;8064;51.142;4.780;2022-07-19T14:30:12;4.93;;;3.03;;
15929;SDS011;8064;51.142;4.780;2022-07-19T14:32:38;6.35;;;2.40;;
15929;SDS011;8064;51.142;4.780;2022-07-19T14:35:05;2.95;;;2.08;;
15929;SDS011;8064;51.142;4.780;2022-07-19T14:37:31;6.72;;;2.60;;
15929;SDS011;8064;51.142;4.780;2022-07-19T14:39:57;5.45;;;2.35;;
15929;SDS011;8064;51.142;4.780;2022-07-19T14:42:23;3.35;;;2.15;;
15929;SDS011;8064;51.142;4.780;2022-07-19T14:44:49;4.72;;;2.25;;
15929;SDS011;8064;51.142;4.780;2022-07-19T14:47:15;4.90;;;2.25;;
15929;SDS011;8064;51.142;4.780;2022-07-19T14:49:41;6.50;;;2.78;;
15929;SDS011;8064;51.142;4.780;2022-07-19T14:52:08;8.65;;;2.20;;
15929;SDS011;8064;51.142;4.780;2022-07-19T14:54:35;4.10;;;1.98;;
15929;SDS011;8064;51.142;4.780;2022-07-19T14:57:01;3.13;;;2.20;;
15929;SDS011;8064;51.142;4.780;2022-07-19T14:59:26;4.13;;;2.05;;
15929;SDS011;8064;51.142;4.780;2022-07-19T15:01:52;10.25;;;2.63;;
15929;SDS011;8064;51.142;4.780;2022-07-19T15:04:18;5.07;;;2.15;;
15929;SDS011;8064;51.142;4.780;2022-07-19T15:06:45;6.53;;;2.10;;
15929;SDS011;8064;51.142;4.780;2022-07-19T15:09:12;6.35;;;2.00;;
15929;SDS011;8064;51.142;4.780;2022-07-19T15:11:38;8.57;;;2.90;;
15929;SDS011;8064;51.142;4.780;2022-07-19T15:14:04;4.82;;;2.35;;
15929;SDS011;8064;51.142;4.780;2022-07-19T15:16:30;4.70;;;2.17;;
15929;SDS011;8064;51.142;4.780;2022-07-19T15:18:56;5.32;;;2.20;;
15929;SDS011;8064;51.142;4.780;2022-07-19T15:21:22;3.75;;;2.10;;
15929;SDS011;8064;51.142;4.780;2022-07-19T15:23:48;6.85;;;2.30;;
15929;SDS011;8064;51.142;4.780;2022-07-19T15:26:13;7.85;;;1.90;;
15929;SDS011;8064;51.142;4.780;2022-07-19T15:28:39;5.50;;;1.98;;
15929;SDS011;8064;51.142;4.780;2022-07-19T15:31:05;3.38;;;1.92;;
15929;SDS011;8064;51.142;4.780;2022-07-19T15:33:31;5.32;;;1.92;;
15929;SDS011;8064;51.142;4.780;2022-07-19T15:35:58;3.88;;;2.10;;
15929;SDS011;8064;51.142;4.780;2022-07-19T15:38:24;4.93;;;2.35;;
15929;SDS011;8064;51.142;4.780;2022-07-19T15:40:49;5.43;;;2.20;;
15929;SDS011;8064;51.142;4.780;2022-07-19T15:43:16;2.88;;;1.90;;
15929;SDS011;8064;51.142;4.780;2022-07-19T15:45:42;5.45;;;2.22;;
15929;SDS011;8064;51.142;4.780;2022-07-19T15:48:08;3.30;;;1.95;;